createdAt,value
2022-09-25T00:00:52.093Z,10.80
2022-09-25T00:03:18.994Z,11.55
2022-09-25T00:05:46.753Z,9.98
2022-09-25T00:08:14.155Z,10.93
2022-09-25T00:10:47.597Z,10.68
2022-09-25T00:13:16.083Z,10.15
2022-09-25T00:15:47.304Z,10.80
2022-09-25T00:18:13.968Z,10.27
2022-09-25T00:20:40.435Z,10.27
2022-09-25T00:23:07.193Z,11.45
2022-09-25T00:25:33.611Z,10.30
2022-09-25T00:28:00.044Z,10.48
2022-09-25T00:30:29.866Z,10.57
2022-09-25T00:32:56.369Z,10.60
2022-09-25T00:35:22.750Z,10.88
2022-09-25T00:37:49.153Z,9.65
2022-09-25T00:40:15.952Z,10.25
2022-09-25T00:42:42.352Z,10.18
2022-09-25T00:45:16.813Z,10.38
2022-09-25T00:47:53.253Z,9.77
2022-09-25T00:52:56.105Z,9.70
2022-09-25T00:55:25.823Z,10.43
2022-09-25T00:57:56.450Z,9.35
2022-09-25T01:00:23.081Z,9.93
2022-09-25T01:02:53.449Z,9.05
2022-09-25T01:05:28.119Z,8.70
2022-09-25T01:07:57.086Z,8.85
2022-09-25T01:10:24.954Z,8.25
2022-09-25T01:12:52.911Z,6.85
2022-09-25T01:15:31.491Z,7.63
2022-09-25T01:18:06.992Z,7.85
2022-09-25T01:20:54.473Z,8.02
2022-09-25T01:23:45.379Z,7.97
2022-09-25T01:26:31.265Z,8.00
2022-09-25T01:29:11.457Z,7.78
2022-09-25T01:32:02.962Z,7.32
2022-09-25T01:35:02.352Z,6.72
2022-09-25T01:38:06.758Z,7.70
2022-09-25T01:40:45.256Z,7.13
2022-09-25T01:43:19.467Z,6.18
2022-09-25T01:45:57.330Z,6.20
2022-09-25T01:48:36.483Z,5.82
2022-09-25T01:51:08.231Z,5.35
2022-09-25T01:53:44.499Z,4.60
2022-09-25T01:56:31.512Z,5.07
2022-09-25T01:59:05.190Z,5.13
2022-09-25T02:01:36.062Z,5.00
2022-09-25T02:04:18.599Z,4.30
2022-09-25T02:06:49.296Z,4.28
2022-09-25T02:09:22.637Z,4.82
2022-09-25T02:11:54.896Z,5.00
2022-09-25T02:14:32.104Z,5.00
2022-09-25T02:16:58.839Z,5.30
2022-09-25T02:19:44.831Z,4.68
2022-09-25T02:22:20.077Z,4.90
2022-09-25T02:24:58.438Z,5.25
2022-09-25T02:27:27.623Z,5.20
2022-09-25T02:29:56.487Z,5.32
2022-09-25T02:32:28.710Z,4.88
2022-09-25T02:34:56.841Z,4.95
2022-09-25T02:37:23.918Z,4.82
2022-09-25T02:39:55.780Z,4.95
2022-09-25T02:42:40.908Z,4.70
2022-09-25T02:45:45.096Z,4.85
2022-09-25T02:48:38.833Z,5.00
2022-09-25T02:51:21.955Z,4.72
2022-09-25T02:54:01.888Z,5.22
2022-09-25T02:56:38.394Z,4.75
2022-09-25T03:02:07.070Z,4.20
2022-09-25T03:04:36.490Z,4.90
2022-09-25T03:07:03.949Z,4.72
2022-09-25T03:09:35.312Z,4.80
2022-09-25T03:12:04.999Z,4.88
2022-09-25T03:14:32.100Z,5.05
2022-09-25T03:17:03.660Z,5.65
2022-09-25T03:19:41.423Z,5.75
2022-09-25T03:22:07.810Z,4.97
2022-09-25T03:24:34.260Z,5.15
2022-09-25T03:27:00.623Z,4.93
2022-09-25T03:29:27.301Z,5.05
2022-09-25T03:31:53.716Z,5.22
2022-09-25T03:34:21.064Z,4.85
2022-09-25T03:36:47.673Z,5.20
2022-09-25T03:39:20.296Z,4.97
2022-09-25T03:41:47.748Z,5.30
2022-09-25T03:44:14.199Z,5.40
2022-09-25T03:46:40.631Z,5.70
2022-09-25T03:49:08.158Z,4.82
2022-09-25T03:51:35.187Z,5.40
2022-09-25T03:54:04.142Z,5.03
2022-09-25T03:56:30.963Z,4.93
2022-09-25T03:58:57.695Z,4.70
2022-09-25T04:01:25.869Z,5.18
2022-09-25T04:03:52.620Z,5.10
2022-09-25T04:06:24.089Z,7.50
2022-09-25T04:08:51.415Z,5.18
2022-09-25T04:11:19.840Z,4.80
2022-09-25T04:13:46.498Z,4.90
2022-09-25T04:16:14.444Z,4.10
2022-09-25T04:18:42.691Z,4.50
2022-09-25T04:21:11.517Z,4.57
2022-09-25T04:23:38.625Z,4.82
2022-09-25T04:26:05.341Z,4.93
2022-09-25T04:28:33.120Z,4.15
2022-09-25T04:31:00.183Z,4.80
2022-09-25T04:33:45.453Z,4.13
2022-09-25T04:36:12.223Z,4.13
2022-09-25T04:38:38.787Z,3.90
2022-09-25T04:41:05.637Z,4.05
2022-09-25T04:43:33.151Z,4.10
2022-09-25T04:46:07.252Z,3.70
2022-09-25T04:48:34.265Z,3.58
2022-09-25T04:51:00.832Z,3.63
2022-09-25T04:53:29.800Z,3.83
2022-09-25T04:56:12.173Z,3.90
2022-09-25T04:58:45.193Z,3.90
2022-09-25T05:01:11.653Z,3.53
2022-09-25T05:03:38.221Z,3.67
2022-09-25T05:06:04.806Z,4.15
2022-09-25T05:08:31.229Z,3.95
2022-09-25T05:10:57.769Z,4.20
2022-09-25T05:13:24.565Z,3.88
2022-09-25T05:15:51.160Z,4.82
2022-09-25T05:18:23.485Z,4.90
2022-09-25T05:20:50.133Z,4.63
2022-09-25T05:23:18.646Z,4.50
2022-09-25T05:25:51.984Z,4.50
2022-09-25T05:28:31.796Z,4.28
2022-09-25T05:31:03.560Z,4.10
2022-09-25T05:33:31.836Z,4.50
2022-09-25T05:36:06.840Z,4.22
2022-09-25T05:38:35.058Z,4.18
2022-09-25T05:41:11.084Z,4.80
2022-09-25T05:43:42.876Z,4.68
2022-09-25T05:46:16.355Z,3.95
2022-09-25T05:48:42.876Z,4.05
2022-09-25T05:51:09.657Z,4.80
2022-09-25T05:53:41.129Z,6.45
2022-09-25T05:56:07.711Z,5.72
2022-09-25T05:58:35.114Z,5.60
2022-09-25T06:01:06.235Z,5.40
2022-09-25T06:03:32.946Z,5.55
2022-09-25T06:06:00.438Z,5.80
2022-09-25T06:08:27.602Z,5.38
2022-09-25T06:10:54.690Z,4.63
2022-09-25T06:13:25.072Z,5.15
2022-09-25T06:15:52.887Z,4.55
2022-09-25T06:18:34.496Z,4.65
2022-09-25T06:21:04.415Z,4.43
2022-09-25T06:23:30.910Z,4.53
2022-09-25T06:26:06.316Z,4.80
2022-09-25T06:28:34.431Z,4.95
2022-09-25T06:31:03.648Z,4.40
2022-09-25T06:33:34.317Z,4.70
2022-09-25T06:36:01.372Z,4.63
2022-09-25T06:38:27.824Z,4.22
2022-09-25T06:40:59.321Z,4.45
2022-09-25T06:43:27.185Z,4.63
2022-09-25T06:46:00.104Z,4.32
2022-09-25T06:48:26.611Z,5.47
2022-09-25T06:50:55.305Z,5.78
2022-09-25T06:53:24.155Z,6.13
2022-09-25T06:55:57.785Z,5.57
2022-09-25T06:58:26.786Z,5.57
2022-09-25T07:00:56.138Z,6.05
2022-09-25T07:03:41.726Z,6.57
2022-09-25T07:06:10.900Z,6.55
2022-09-25T07:08:37.823Z,5.97
2022-09-25T07:11:05.432Z,5.60
2022-09-25T07:13:34.789Z,5.65
2022-09-25T07:16:06.785Z,5.40
2022-09-25T07:18:34.191Z,5.78
2022-09-25T07:21:20.933Z,5.70
2022-09-25T07:23:50.774Z,4.93
2022-09-25T07:26:22.383Z,5.68
2022-09-25T07:28:55.194Z,6.78
2022-09-25T07:31:30.678Z,5.78
2022-09-25T07:34:09.341Z,4.90
2022-09-25T07:36:42.584Z,4.60
2022-09-25T07:39:13.709Z,3.80
2022-09-25T07:41:54.555Z,4.45
2022-09-25T07:44:30.323Z,4.38
2022-09-25T07:47:07.121Z,4.20
2022-09-25T07:49:34.442Z,3.70
2022-09-25T07:52:05.879Z,3.83
2022-09-25T07:54:32.913Z,4.28
2022-09-25T07:56:59.281Z,4.03
2022-09-25T07:59:25.700Z,3.92
2022-09-25T08:01:54.208Z,4.30
2022-09-25T08:04:21.949Z,4.13
2022-09-25T08:06:48.329Z,3.90
2022-09-25T08:09:14.790Z,4.35
2022-09-25T08:11:41.242Z,3.63
2022-09-25T08:14:07.729Z,3.40
2022-09-25T08:16:34.145Z,4.15
2022-09-25T08:19:04.656Z,4.05
2022-09-25T08:21:38.064Z,4.45
2022-09-25T08:24:04.623Z,4.88
2022-09-25T08:26:31.860Z,4.50
2022-09-25T08:28:59.339Z,4.70
2022-09-25T08:31:26.314Z,4.40
2022-09-25T08:33:54.240Z,5.10
2022-09-25T08:36:21.520Z,5.60
2022-09-25T08:38:49.439Z,5.57
2022-09-25T08:41:29.569Z,6.30
2022-09-25T08:43:58.670Z,6.82
2022-09-25T08:46:57.292Z,8.10
2022-09-25T08:49:37.889Z,7.82
2022-09-25T08:52:08.233Z,8.75
2022-09-25T08:54:36.177Z,8.65
2022-09-25T08:57:18.840Z,8.40
2022-09-25T08:59:59.783Z,7.45
2022-09-25T09:02:50.447Z,8.30
2022-09-25T09:05:37.758Z,8.15
2022-09-25T09:08:12.129Z,8.10
2022-09-25T09:10:53.375Z,7.55
2022-09-25T09:13:58.017Z,7.53
2022-09-25T09:16:57.515Z,7.00
2022-09-25T09:19:24.382Z,6.50
2022-09-25T09:22:09.182Z,6.70
2022-09-25T09:24:48.766Z,6.90
2022-09-25T09:27:36.400Z,6.68
2022-09-25T09:30:21.647Z,6.35
2022-09-25T09:32:57.141Z,6.10
2022-09-25T09:35:54.030Z,6.10
2022-09-25T09:38:23.470Z,5.88
2022-09-25T09:41:34.949Z,5.50
2022-09-25T09:44:19.169Z,6.03
2022-09-25T09:47:04.862Z,5.47
2022-09-25T09:49:42.061Z,6.28
2022-09-25T09:52:11.640Z,6.20
2022-09-25T09:54:52.777Z,6.70
2022-09-25T09:57:22.448Z,6.47
2022-09-25T10:00:16.034Z,7.07
2022-09-25T10:02:59.566Z,6.80
2022-09-25T10:05:34.008Z,7.30
2022-09-25T10:08:00.642Z,7.40
2022-09-25T10:10:36.108Z,6.90
2022-09-25T10:13:06.735Z,7.63
2022-09-25T10:15:39.601Z,7.93
2022-09-25T10:18:06.650Z,7.93
2022-09-25T10:20:46.330Z,8.00
2022-09-25T10:23:40.175Z,8.35
2022-09-25T10:26:38.802Z,8.38
2022-09-25T10:29:08.147Z,7.47
2022-09-25T10:31:39.765Z,9.05
2022-09-25T10:34:24.032Z,8.98
2022-09-25T10:36:52.763Z,8.95
2022-09-25T10:39:46.969Z,8.68
2022-09-25T10:42:35.691Z,8.70
2022-09-25T10:45:32.883Z,8.98
2022-09-25T10:48:18.461Z,9.52
2022-09-25T10:50:45.440Z,8.93
2022-09-25T10:53:28.942Z,9.02
2022-09-25T10:56:02.454Z,9.75
2022-09-25T10:58:47.668Z,9.90
2022-09-25T11:01:16.202Z,10.63
2022-09-25T11:03:56.045Z,9.77
2022-09-25T11:06:33.180Z,10.30
2022-09-25T11:09:13.294Z,10.20
2022-09-25T11:11:41.019Z,10.55
2022-09-25T11:14:22.583Z,9.95
2022-09-25T11:16:55.950Z,9.43
2022-09-25T11:19:29.708Z,10.02
2022-09-25T11:22:10.991Z,10.18
2022-09-25T11:25:03.444Z,8.68
2022-09-25T11:27:43.721Z,9.43
2022-09-25T11:30:12.696Z,9.35
2022-09-25T11:33:01.843Z,9.02
2022-09-25T11:36:05.992Z,7.93
2022-09-25T11:39:08.787Z,7.68
2022-09-25T11:41:49.022Z,7.22
2022-09-25T11:44:42.217Z,7.15
2022-09-25T11:47:17.702Z,6.82
2022-09-25T11:49:54.362Z,6.55
2022-09-25T11:52:29.686Z,6.78
2022-09-25T11:55:05.770Z,7.25
2022-09-25T11:57:41.375Z,6.43
2022-09-25T12:00:41.986Z,6.97
2022-09-25T12:03:14.859Z,5.68
2022-09-25T12:06:14.192Z,7.18
2022-09-25T12:08:50.485Z,6.63
2022-09-25T12:11:45.794Z,6.53
2022-09-25T12:14:15.350Z,6.50
2022-09-25T12:17:05.860Z,6.72
2022-09-25T12:19:53.277Z,6.30
2022-09-25T12:22:31.321Z,6.85
2022-09-25T12:25:09.777Z,6.93
2022-09-25T12:27:48.368Z,6.90
2022-09-25T12:30:23.363Z,6.80
2022-09-25T12:33:08.740Z,6.70
2022-09-25T12:35:59.885Z,6.32
2022-09-25T12:38:48.452Z,6.50
2022-09-25T12:41:33.992Z,7.00
2022-09-25T12:44:06.789Z,6.55
2022-09-25T12:46:57.617Z,6.28
2022-09-25T12:50:09.348Z,6.65
2022-09-25T12:52:57.432Z,5.85
2022-09-25T12:55:31.482Z,5.70
2022-09-25T12:58:18.122Z,6.13
2022-09-25T13:00:48.301Z,6.40
2022-09-25T13:03:26.675Z,6.10
2022-09-25T13:06:17.632Z,6.07
2022-09-25T13:09:12.593Z,5.70
2022-09-25T13:11:52.025Z,6.28
2022-09-25T13:14:42.567Z,5.53
2022-09-25T13:17:12.184Z,5.68
2022-09-25T13:19:38.937Z,5.50
2022-09-25T13:22:25.931Z,5.93
2022-09-25T13:27:23.196Z,5.13
2022-09-25T13:30:01.663Z,5.03
2022-09-25T13:32:34.703Z,5.43
2022-09-25T13:35:05.841Z,5.40
2022-09-25T13:37:35.652Z,5.25
2022-09-25T13:40:36.676Z,4.80
2022-09-25T13:43:37.575Z,5.10
2022-09-25T13:46:23.076Z,5.70
2022-09-25T13:48:55.408Z,4.25
2022-09-25T13:51:21.836Z,4.22
2022-09-25T13:54:03.583Z,4.70
2022-09-25T13:56:41.955Z,7.32
2022-09-25T13:59:34.908Z,6.90
2022-09-25T14:02:37.241Z,7.78
2022-09-25T14:05:05.231Z,7.07
2022-09-25T14:07:31.785Z,7.03
2022-09-25T14:10:00.279Z,6.80
2022-09-25T14:12:55.312Z,6.20
2022-09-25T14:15:26.992Z,6.68
2022-09-25T14:18:39.068Z,6.30
2022-09-25T14:21:09.817Z,6.90
2022-09-25T14:23:54.827Z,6.90
2022-09-25T14:26:25.424Z,6.40
2022-09-25T14:28:54.138Z,6.70
2022-09-25T14:31:29.906Z,6.28
2022-09-25T14:34:38.329Z,8.43
2022-09-25T14:37:55.988Z,10.35
2022-09-25T14:40:33.680Z,6.70
2022-09-25T14:43:14.253Z,6.68
2022-09-25T14:45:58.690Z,5.32
2022-09-25T14:48:54.364Z,4.53
2022-09-25T14:51:44.413Z,4.72
2022-09-25T14:54:18.193Z,3.65
2022-09-25T14:56:50.064Z,4.22
2022-09-25T14:59:23.859Z,4.30
2022-09-25T15:02:02.905Z,4.82
2022-09-25T15:04:32.808Z,4.60
2022-09-25T15:07:08.418Z,4.63
2022-09-25T15:09:37.852Z,4.27
2022-09-25T15:12:30.395Z,5.05
2022-09-25T15:15:02.829Z,5.30
2022-09-25T15:17:31.837Z,6.88
2022-09-25T15:20:01.422Z,6.65
2022-09-25T15:22:38.681Z,5.82
2022-09-25T15:25:22.668Z,4.97
2022-09-25T15:27:49.576Z,4.90
2022-09-25T15:30:18.020Z,4.38
2022-09-25T15:32:58.409Z,4.10
2022-09-25T15:35:28.019Z,3.85
2022-09-25T15:38:12.109Z,3.63
2022-09-25T15:40:39.417Z,4.05
2022-09-25T15:43:14.479Z,4.03
2022-09-25T15:46:02.691Z,3.97
2022-09-25T15:48:34.393Z,4.13
2022-09-25T15:51:03.904Z,4.60
2022-09-25T15:53:35.924Z,5.25
2022-09-25T15:56:16.334Z,6.85
2022-09-25T15:58:46.171Z,4.50
2022-09-25T16:01:34.361Z,4.22
2022-09-25T16:04:20.381Z,4.30
2022-09-25T16:06:46.909Z,4.82
2022-09-25T16:09:35.074Z,3.60
2022-09-25T16:12:34.921Z,3.25
2022-09-25T16:15:27.010Z,3.30
2022-09-25T16:18:15.785Z,2.40
2022-09-25T16:20:42.417Z,2.03
2022-09-25T16:23:28.115Z,1.90
2022-09-25T16:25:55.460Z,2.30
2022-09-25T16:28:25.939Z,2.42
2022-09-25T16:30:58.223Z,3.08
2022-09-25T16:33:31.436Z,3.50
2022-09-25T16:36:17.629Z,3.75
2022-09-25T16:39:14.151Z,3.60
2022-09-25T16:41:48.427Z,4.00
2022-09-25T16:44:16.177Z,3.45
2022-09-25T16:46:44.284Z,2.80
2022-09-25T16:49:12.287Z,3.08
2022-09-25T16:51:45.453Z,3.35
2022-09-25T16:54:19.430Z,3.38
2022-09-25T16:56:48.375Z,3.72
2022-09-25T16:59:17.406Z,3.60
2022-09-25T17:01:45.478Z,3.70
2022-09-25T17:04:13.455Z,6.25
2022-09-25T17:06:41.459Z,5.47
2022-09-25T17:09:19.241Z,3.78
2022-09-25T17:11:50.082Z,3.42
2022-09-25T17:14:26.737Z,3.50
2022-09-25T17:16:56.900Z,2.78
2022-09-25T17:19:24.721Z,2.42
2022-09-25T17:21:53.073Z,2.83
2022-09-25T17:24:26.058Z,2.53
2022-09-25T17:26:53.009Z,2.03
2022-09-25T17:29:21.337Z,2.30
2022-09-25T17:31:50.029Z,2.10
2022-09-25T17:34:28.557Z,1.38
2022-09-25T17:36:56.962Z,1.30
2022-09-25T17:39:23.766Z,1.50
2022-09-25T17:41:53.234Z,1.67
2022-09-25T17:44:23.647Z,1.25
2022-09-25T17:46:51.171Z,1.60
2022-09-25T17:49:17.929Z,1.70
2022-09-25T17:51:44.723Z,1.50
2022-09-25T17:54:13.257Z,1.63
2022-09-25T17:56:40.295Z,4.00
2022-09-25T17:59:09.062Z,15.85
2022-09-25T18:01:39.515Z,11.48
2022-09-25T18:04:24.102Z,13.63
2022-09-25T18:06:51.295Z,9.05
2022-09-25T18:09:17.854Z,6.72
2022-09-25T18:11:50.150Z,10.05
2022-09-25T18:14:17.267Z,26.10
2022-09-25T18:16:44.958Z,30.30
2022-09-25T18:19:35.630Z,7.30
2022-09-25T18:22:17.535Z,4.68
2022-09-25T18:24:45.097Z,5.20
2022-09-25T18:27:12.867Z,5.32
2022-09-25T18:29:39.457Z,4.20
2022-09-25T18:32:08.040Z,4.47
2022-09-25T18:34:34.475Z,5.07
2022-09-25T18:37:00.868Z,4.20
2022-09-25T18:39:27.324Z,4.00
2022-09-25T18:41:53.747Z,3.90
2022-09-25T18:44:23.300Z,3.42
2022-09-25T18:46:51.658Z,3.83
2022-09-25T18:49:19.046Z,3.33
2022-09-25T18:51:45.865Z,3.72
2022-09-25T18:54:13.767Z,3.33
2022-09-25T18:56:40.773Z,3.38
2022-09-25T18:59:07.560Z,3.72
2022-09-25T19:01:35.651Z,3.03
2022-09-25T19:04:02.221Z,3.70
2022-09-25T19:06:28.774Z,3.70
2022-09-25T19:08:56.641Z,2.95
2022-09-25T19:11:24.618Z,2.53
2022-09-25T19:13:51.128Z,3.10
2022-09-25T19:16:18.729Z,3.72
2022-09-25T19:18:45.394Z,4.45
2022-09-25T19:21:16.246Z,5.35
2022-09-25T19:23:43.380Z,4.20
2022-09-25T19:26:16.214Z,4.00
2022-09-25T19:28:43.065Z,4.25
2022-09-25T19:31:18.762Z,3.47
2022-09-25T19:33:45.651Z,3.10
2022-09-25T19:36:19.242Z,3.90
2022-09-25T19:38:46.532Z,4.22
2022-09-25T19:41:19.115Z,5.00
2022-09-25T19:43:45.851Z,5.07
2022-09-25T19:46:14.683Z,3.90
2022-09-25T19:48:41.278Z,3.78
2022-09-25T19:51:08.326Z,3.65
2022-09-25T19:53:35.695Z,3.90
2022-09-25T19:56:10.367Z,2.78
2022-09-25T19:58:38.515Z,2.25
2022-09-25T20:01:13.988Z,2.20
2022-09-25T20:03:41.313Z,2.13
2022-09-25T20:06:09.262Z,5.70
2022-09-25T20:08:36.096Z,4.00
2022-09-25T20:11:22.427Z,2.83
2022-09-25T20:13:50.976Z,3.83
2022-09-25T20:16:20.474Z,2.97
2022-09-25T20:18:48.706Z,3.50
2022-09-25T20:21:17.483Z,3.58
2022-09-25T20:23:44.232Z,4.10
2022-09-25T20:26:13.178Z,3.65
2022-09-25T20:28:40.615Z,3.50
2022-09-25T20:31:09.398Z,3.08
2022-09-25T20:33:36.615Z,3.88
2022-09-25T20:36:08.190Z,4.68
2022-09-25T20:38:36.765Z,4.00
2022-09-25T20:41:09.469Z,3.60
2022-09-25T20:43:35.833Z,3.17
2022-09-25T20:46:05.173Z,2.90
2022-09-25T20:48:47.081Z,2.25
2022-09-25T20:51:16.462Z,2.60
2022-09-25T20:53:43.356Z,2.30
2022-09-25T20:56:13.583Z,2.90
2022-09-25T20:58:42.207Z,2.80
2022-09-25T21:01:17.710Z,2.60
2022-09-25T21:03:47.689Z,3.00
2022-09-25T21:06:16.739Z,3.05
2022-09-25T21:08:43.289Z,2.80
2022-09-25T21:11:11.733Z,3.30
2022-09-25T21:13:39.480Z,3.15
2022-09-25T21:16:11.426Z,3.05
2022-09-25T21:18:39.439Z,3.20
2022-09-25T21:21:11.629Z,3.00
2022-09-25T21:23:38.609Z,3.20
2022-09-25T21:26:15.433Z,3.47
2022-09-25T21:28:44.210Z,3.42
2022-09-25T21:31:16.277Z,3.03
2022-09-25T21:33:43.802Z,2.97
2022-09-25T21:36:15.773Z,3.03
2022-09-25T21:38:42.738Z,3.10
2022-09-25T21:41:14.280Z,3.22
2022-09-25T21:43:41.345Z,3.17
2022-09-25T21:46:11.278Z,2.75
2022-09-25T21:48:39.631Z,3.08
2022-09-25T21:51:08.059Z,3.70
2022-09-25T21:53:35.486Z,3.28
2022-09-25T21:56:04.588Z,3.60
2022-09-25T21:58:31.255Z,3.88
2022-09-25T22:01:12.456Z,3.83
2022-09-25T22:03:41.460Z,3.58
2022-09-25T22:06:10.834Z,4.35
2022-09-25T22:08:39.306Z,4.13
2022-09-25T22:11:06.896Z,4.28
2022-09-25T22:13:36.389Z,3.83
2022-09-25T22:16:09.789Z,3.58
2022-09-25T22:18:45.257Z,3.67
2022-09-25T22:21:13.433Z,3.45
2022-09-25T22:23:39.803Z,3.72
2022-09-25T22:26:06.855Z,3.88
2022-09-25T22:28:35.434Z,3.47
2022-09-25T22:31:11.416Z,4.43
2022-09-25T22:33:38.218Z,4.20
2022-09-25T22:36:08.275Z,4.30
2022-09-25T22:38:34.815Z,3.97
2022-09-25T22:41:06.094Z,3.95
2022-09-25T22:43:33.316Z,3.80
2022-09-25T22:46:00.132Z,4.43
2022-09-25T22:48:27.020Z,4.47
2022-09-25T22:51:02.316Z,4.10
2022-09-25T22:53:30.479Z,4.15
2022-09-25T22:56:07.874Z,3.92
2022-09-25T22:58:34.444Z,3.38
2022-09-25T23:01:02.226Z,3.67
2022-09-25T23:03:29.073Z,4.03
2022-09-25T23:05:57.348Z,3.72
2022-09-25T23:08:23.748Z,4.00
2022-09-25T23:11:06.742Z,4.60
2022-09-25T23:13:35.075Z,4.70
2022-09-25T23:16:07.141Z,3.70
2022-09-25T23:18:35.552Z,4.55
2022-09-25T23:21:01.960Z,5.13
2022-09-25T23:23:30.816Z,4.90
2022-09-25T23:26:07.739Z,4.63
2022-09-25T23:28:39.737Z,3.70
2022-09-25T23:31:08.254Z,3.33
2022-09-25T23:33:35.685Z,3.10
2022-09-25T23:36:07.361Z,2.88
2022-09-25T23:38:34.728Z,2.60
2022-09-25T23:41:01.771Z,2.42
2022-09-25T23:43:28.709Z,2.28
2022-09-25T23:45:55.730Z,2.55
2022-09-25T23:48:22.228Z,3.10
2022-09-25T23:50:51.164Z,3.33
2022-09-25T23:53:17.550Z,2.78
2022-09-25T23:55:44.043Z,2.58
2022-09-25T23:58:10.604Z,2.05
